AirNav   Pilot Hours Calculator
 
 812 users online  

WI55 Broken Prop Airport
Berlin, Wisconsin, USA

GOING TO BERLIN?


FAA INFORMATION EFFECTIVE 31 DECEMBER 2020

Location

FAA Identifier: WI55
Lat/Long: 43-59-09.9290N 088-59-00.4150W
43-59.165483N 088-59.006917W
43.9860914,-88.9834486
(estimated)
Elevation: 767 ft. / 233.8 m (surveyed)
Variation: 01W (1985)
From city: 2 miles NW of BERLIN, WI
Time zone: UTC -6 (UTC -5 during Daylight Saving Time)
Zip code: 54923

Airport Operations

Airport use: Private use. Permission required prior to landing
Activation date: 05/1970
Control tower: no
ARTCC: CHICAGO CENTER
FSS: GREEN BAY FLIGHT SERVICE STATION
Attendance: CONTINUOUS
Wind indicator: yes
Segmented circle: no

Airport Communications

WX AWOS-3PT at Y50 (14 nm W): 119.475 (920-787-0515)
WX ASOS at OSH (18 nm E): PHONE 920-426-1644

Nearby radio navigation aids

VOR radial/distance  VOR name  Freq  Var
OSHr267/18.5OSHKOSH VORTAC116.7502E

 
NDB name  Hdg/Dist  Freq  Var  ID
JUNEAU341/35.634401WUNU ..- -. ..-

Airport Services

Airframe service: NONE
Powerplant service: NONE

Runway Information

Runway 1/19

Dimensions: 1300 x 60 ft. / 396 x 18 m
Surface: turf
RUNWAY 1  RUNWAY 19
Traffic pattern: leftleft
Obstructions: nonepline, marked

Airport Ownership and Management from official FAA records

Ownership: Privately-owned
Owner: WALTER P. SOBRALSKE
RT 3, BOX 33
BERLIN, WI 54923
Phone 414-361-1631

Airport Operational Statistics

Aircraft based on the field: 1
Single engine airplanes: 1
    

Additional Remarks

DEEP DITCH PARALLEL TO EAST SIDE OF RUNWAY.
FOR CD CTC CHICAGO ARTCC AT 630-906-8921.

Instrument Procedures

There are no published instrument procedures at WI55.

Some nearby airports with instrument procedures:

Y50 - Wautoma Municipal Airport (14 nm W)
KOSH - Wittman Regional Airport (18 nm E)
KPCZ - Waupaca Municipal Airport (21 nm N)
KFLD - Fond Du Lac County Airport (25 nm SE)
KATW - Appleton International Airport (26 nm NE)
 
Loc | Ops | Rwys | IFR | FBO | Links
Com | Nav | Svcs | Stats | Notes
Area around WI55 (Broken Prop Airport)
 
Road maps at: MapQuest Bing Google
 
Aerial photo
No photo
 
Sectional chart

 
Airport distance calculator
Flying to Broken Prop Airport? Find the distance to fly.

From to WI55

Sunrise and sunset
Times for 27-Jan-2021
 Local
(UTC-6)
 Zulu
(UTC)
Morning civil twilight06:4812:48
Sunrise07:2013:20
Sunset16:5822:58
Evening civil twilight17:2923:29

Current date and time
Zulu (UTC)  27-Jan-2021 13:14:37
Local (UTC-6)  27-Jan-2021 07:14:37
 
METAR
KY50 
14nm W 
271256Z AUTO 00000KT 10SM CLR M17/M19 A3037 RMK AO2 SLP303 T11671189 FZRANO $
KOSH 
19nm E 
271253Z 34004KT 10SM CLR M13/M16 A3034 RMK AO2 SLP302 T11281161
KPCZ 
21nm N 
271255Z AUTO 33003KT 10SM CLR M15/M17 A3036 RMK AO2 T11481171
KFLD 
25nm SE 
271253Z AUTO 32003KT 10SM CLR M13/M16 A3035 RMK AO2 SLP295 T11331156
KATW 
26nm NE 
271245Z 34008KT 10SM CLR M13/M16 A3033
TAF
NOTAMs
Click for the latest NOTAMs
NOTAMs are issued by the DoD/FAA and will open in a separate window not controlled by AirNav.

 

 
 

Would you like to see your business listed on this page?

 If your business provides an interesting product or service to pilots, flight crews, aircraft, or users of the Broken Prop Airport, you should consider listing it here.  To start the listing process, click on the button below
 
Add a business
 

Other Pages about Broken Prop Airport

Update a link
 
Copyright © AirNav, LLC. All rights reserved. Privacy Policy  Contact